sensor_id;sensor_type;location;lat;lon;timestamp;pressure;altitude;pressure_sealevel;temperature;humidity
72636;BME280;60679;48.888;15.544;2023-05-21T00:01:36;96344.75;;;10.99;68.90
72636;BME280;60679;48.888;15.544;2023-05-21T00:04:03;96348.72;;;10.96;69.00
72636;BME280;60679;48.888;15.544;2023-05-21T00:06:32;96345.03;;;10.91;69.01
72636;BME280;60679;48.888;15.544;2023-05-21T00:09:01;96338.22;;;10.88;69.01
72636;BME280;60679;48.888;15.544;2023-05-21T00:11:26;96344.88;;;10.86;69.07
72636;BME280;60679;48.888;15.544;2023-05-21T00:13:52;96339.69;;;10.84;69.10
72636;BME280;60679;48.888;15.544;2023-05-21T00:16:17;96340.53;;;10.85;69.24
72636;BME280;60679;48.888;15.544;2023-05-21T00:18:43;96334.53;;;10.83;69.11
72636;BME280;60679;48.888;15.544;2023-05-21T00:21:09;96328.75;;;10.79;69.12
72636;BME280;60679;48.888;15.544;2023-05-21T00:23:34;96334.81;;;10.75;69.26
72636;BME280;60679;48.888;15.544;2023-05-21T00:26:00;96328.78;;;10.73;69.46
72636;BME280;60679;48.888;15.544;2023-05-21T00:28:26;96322.22;;;10.69;69.34
72636;BME280;60679;48.888;15.544;2023-05-21T00:30:51;96320.34;;;10.69;69.25
72636;BME280;60679;48.888;15.544;2023-05-21T00:33:16;96323.25;;;10.68;69.28
72636;BME280;60679;48.888;15.544;2023-05-21T00:35:44;96325.56;;;10.64;69.30
72636;BME280;60679;48.888;15.544;2023-05-21T00:38:10;96315.66;;;10.58;69.50
72636;BME280;60679;48.888;15.544;2023-05-21T00:40:35;96320.44;;;10.56;69.52
72636;BME280;60679;48.888;15.544;2023-05-21T00:43:01;96317.59;;;10.51;69.38
72636;BME280;60679;48.888;15.544;2023-05-21T00:45:26;96317.19;;;10.48;69.51
72636;BME280;60679;48.888;15.544;2023-05-21T00:47:53;96320.34;;;10.44;69.61
72636;BME280;60679;48.888;15.544;2023-05-21T00:50:20;96320.78;;;10.41;69.73
72636;BME280;60679;48.888;15.544;2023-05-21T00:52:47;96320.78;;;10.41;69.60
72636;BME280;60679;48.888;15.544;2023-05-21T00:55:13;96318.31;;;10.40;69.74
72636;BME280;60679;48.888;15.544;2023-05-21T00:57:39;96315.22;;;10.36;69.56
72636;BME280;60679;48.888;15.544;2023-05-21T01:00:05;96317.31;;;10.34;69.71
72636;BME280;60679;48.888;15.544;2023-05-21T01:02:34;96317.16;;;10.29;69.70
72636;BME280;60679;48.888;15.544;2023-05-21T01:05:04;96306.56;;;10.28;69.92
72636;BME280;60679;48.888;15.544;2023-05-21T01:07:32;96313.25;;;10.25;69.74
72636;BME280;60679;48.888;15.544;2023-05-21T01:10:03;96311.81;;;10.23;69.73
72636;BME280;60679;48.888;15.544;2023-05-21T01:12:31;96307.28;;;10.17;69.81
72636;BME280;60679;48.888;15.544;2023-05-21T01:14:59;96298.59;;;10.15;69.75
72636;BME280;60679;48.888;15.544;2023-05-21T01:17:27;96301.31;;;10.15;69.98
72636;BME280;60679;48.888;15.544;2023-05-21T01:19:54;96298.19;;;10.11;69.92
72636;BME280;60679;48.888;15.544;2023-05-21T01:22:22;96296.31;;;10.12;69.98
72636;BME280;60679;48.888;15.544;2023-05-21T01:24:49;96301.72;;;10.12;69.98
72636;BME280;60679;48.888;15.544;2023-05-21T01:27:15;96302.75;;;10.11;69.84
72636;BME280;60679;48.888;15.544;2023-05-21T01:29:41;96304.66;;;10.10;70.04
72636;BME280;60679;48.888;15.544;2023-05-21T01:35:11;96291.63;;;10.01;70.00
72636;BME280;60679;48.888;15.544;2023-05-21T01:40:52;96300.16;;;9.98;70.31
72636;BME280;60679;48.888;15.544;2023-05-21T01:43:21;96304.28;;;10.00;70.17
72636;BME280;60679;48.888;15.544;2023-05-21T01:45:50;96302.03;;;9.97;70.27
72636;BME280;60679;48.888;15.544;2023-05-21T01:48:18;96299.94;;;9.99;70.41
72636;BME280;60679;48.888;15.544;2023-05-21T01:50:45;96299.31;;;9.97;70.27
72636;BME280;60679;48.888;15.544;2023-05-21T01:53:11;96298.13;;;9.93;70.27
72636;BME280;60679;48.888;15.544;2023-05-21T01:55:36;96294.00;;;9.91;70.23
72636;BME280;60679;48.888;15.544;2023-05-21T01:58:06;96299.16;;;9.92;70.54
72636;BME280;60679;48.888;15.544;2023-05-21T02:00:32;96304.16;;;9.88;70.39
72636;BME280;60679;48.888;15.544;2023-05-21T02:02:58;96299.19;;;9.85;70.26
72636;BME280;60679;48.888;15.544;2023-05-21T02:05:24;96302.13;;;9.84;70.52
72636;BME280;60679;48.888;15.544;2023-05-21T02:07:50;96299.03;;;9.80;70.50
72636;BME280;60679;48.888;15.544;2023-05-21T02:10:16;96298.44;;;9.78;70.67
72636;BME280;60679;48.888;15.544;2023-05-21T02:12:45;96297.38;;;9.79;70.75
72636;BME280;60679;48.888;15.544;2023-05-21T02:15:10;96298.22;;;9.80;70.79
72636;BME280;60679;48.888;15.544;2023-05-21T02:17:38;96298.28;;;9.73;70.72
72636;BME280;60679;48.888;15.544;2023-05-21T02:20:05;96302.19;;;9.71;70.75
72636;BME280;60679;48.888;15.544;2023-05-21T02:22:37;96294.94;;;9.71;70.63
72636;BME280;60679;48.888;15.544;2023-05-21T02:25:04;96294.34;;;9.69;70.75
72636;BME280;60679;48.888;15.544;2023-05-21T02:27:31;96293.34;;;9.64;70.66
72636;BME280;60679;48.888;15.544;2023-05-21T02:30:00;96285.91;;;9.59;70.84
72636;BME280;60679;48.888;15.544;2023-05-21T02:32:25;96284.44;;;9.57;70.79
72636;BME280;60679;48.888;15.544;2023-05-21T02:34:55;96280.38;;;9.48;70.90
72636;BME280;60679;48.888;15.544;2023-05-21T02:37:22;96279.19;;;9.37;70.71
72636;BME280;60679;48.888;15.544;2023-05-21T02:39:51;96279.25;;;9.31;71.01
72636;BME280;60679;48.888;15.544;2023-05-21T02:42:16;96278.59;;;9.28;71.46
72636;BME280;60679;48.888;15.544;2023-05-21T02:44:42;96279.88;;;9.26;71.08
72636;BME280;60679;48.888;15.544;2023-05-21T02:47:07;96275.97;;;9.22;71.06
72636;BME280;60679;48.888;15.544;2023-05-21T02:49:34;96277.84;;;9.15;70.75
72636;BME280;60679;48.888;15.544;2023-05-21T02:52:00;96289.88;;;9.12;70.86
72636;BME280;60679;48.888;15.544;2023-05-21T02:54:25;96276.00;;;9.09;71.07
72636;BME280;60679;48.888;15.544;2023-05-21T02:56:51;96278.53;;;9.04;71.16
72636;BME280;60679;48.888;15.544;2023-05-21T02:59:16;96282.28;;;9.03;71.42
72636;BME280;60679;48.888;15.544;2023-05-21T03:01:41;96285.34;;;9.06;71.28
72636;BME280;60679;48.888;15.544;2023-05-21T03:04:09;96286.59;;;9.10;71.09
72636;BME280;60679;48.888;15.544;2023-05-21T03:06:35;96279.50;;;9.16;71.08
72636;BME280;60679;48.888;15.544;2023-05-21T03:09:01;96287.78;;;9.14;71.06
72636;BME280;60679;48.888;15.544;2023-05-21T03:11:27;96292.81;;;9.04;71.20
72636;BME280;60679;48.888;15.544;2023-05-21T03:13:52;96298.63;;;9.01;71.20
72636;BME280;60679;48.888;15.544;2023-05-21T03:16:18;96293.25;;;9.01;70.99
72636;BME280;60679;48.888;15.544;2023-05-21T03:18:43;96288.25;;;9.05;71.34
72636;BME280;60679;48.888;15.544;2023-05-21T03:21:12;96294.25;;;9.13;71.17
72636;BME280;60679;48.888;15.544;2023-05-21T03:23:42;96287.78;;;9.21;71.01
72636;BME280;60679;48.888;15.544;2023-05-21T03:26:07;96292.31;;;9.27;70.90
72636;BME280;60679;48.888;15.544;2023-05-21T03:28:39;96294.34;;;9.32;70.91
72636;BME280;60679;48.888;15.544;2023-05-21T03:31:04;96294.75;;;9.35;71.09
72636;BME280;60679;48.888;15.544;2023-05-21T03:33:30;96296.19;;;9.38;71.15
72636;BME280;60679;48.888;15.544;2023-05-21T03:35:55;96292.06;;;9.35;70.92
72636;BME280;60679;48.888;15.544;2023-05-21T03:38:20;96289.97;;;9.37;70.99
72636;BME280;60679;48.888;15.544;2023-05-21T03:40:46;96287.06;;;9.39;70.85
72636;BME280;60679;48.888;15.544;2023-05-21T03:43:11;96285.16;;;9.46;70.85
72636;BME280;60679;48.888;15.544;2023-05-21T03:45:37;96289.31;;;9.48;70.85
72636;BME280;60679;48.888;15.544;2023-05-21T03:48:02;96292.59;;;9.50;70.48
72636;BME280;60679;48.888;15.544;2023-05-21T03:50:28;96298.81;;;9.51;70.72
72636;BME280;60679;48.888;15.544;2023-05-21T03:52:53;96294.22;;;9.58;70.71
72636;BME280;60679;48.888;15.544;2023-05-21T03:55:19;96291.69;;;9.63;70.50
72636;BME280;60679;48.888;15.544;2023-05-21T03:57:44;96296.81;;;9.71;70.52
72636;BME280;60679;48.888;15.544;2023-05-21T04:00:10;96289.50;;;9.78;70.51
72636;BME280;60679;48.888;15.544;2023-05-21T04:02:36;96302.13;;;9.84;70.28
72636;BME280;60679;48.888;15.544;2023-05-21T04:05:01;96306.25;;;9.86;70.15
72636;BME280;60679;48.888;15.544;2023-05-21T04:07:27;96299.19;;;9.85;70.25
72636;BME280;60679;48.888;15.544;2023-05-21T04:09:54;96290.69;;;9.88;70.16
72636;BME280;60679;48.888;15.544;2023-05-21T04:12:20;96285.44;;;9.94;70.30
72636;BME280;60679;48.888;15.544;2023-05-21T04:14:47;96283.75;;;9.99;70.25
72636;BME280;60679;48.888;15.544;2023-05-21T04:17:13;96286.63;;;10.04;70.21
72636;BME280;60679;48.888;15.544;2023-05-21T04:19:38;96288.66;;;10.15;70.24
72636;BME280;60679;48.888;15.544;2023-05-21T04:22:04;96288.53;;;10.28;70.07
72636;BME280;60679;48.888;15.544;2023-05-21T04:24:30;96297.31;;;10.42;69.86
72636;BME280;60679;48.888;15.544;2023-05-21T04:26:55;96294.13;;;10.52;70.07
72636;BME280;60679;48.888;15.544;2023-05-21T04:29:28;96298.09;;;10.67;69.92
72636;BME280;60679;48.888;15.544;2023-05-21T04:31:54;96286.81;;;10.77;69.83
72636;BME280;60679;48.888;15.544;2023-05-21T04:34:20;96291.22;;;10.89;69.86
72636;BME280;60679;48.888;15.544;2023-05-21T04:36:46;96291.91;;;11.03;69.60
72636;BME280;60679;48.888;15.544;2023-05-21T04:39:11;96298.06;;;11.10;69.53
72636;BME280;60679;48.888;15.544;2023-05-21T04:41:38;96298.38;;;11.20;69.46
72636;BME280;60679;48.888;15.544;2023-05-21T04:44:06;96294.78;;;11.38;69.64
72636;BME280;60679;48.888;15.544;2023-05-21T04:46:32;96294.00;;;11.49;69.38
72636;BME280;60679;48.888;15.544;2023-05-21T04:48:59;96296.56;;;11.62;69.27
72636;BME280;60679;48.888;15.544;2023-05-21T04:51:28;96288.66;;;11.79;69.27
72636;BME280;60679;48.888;15.544;2023-05-21T04:53:54;96293.38;;;11.95;69.04
72636;BME280;60679;48.888;15.544;2023-05-21T04:56:20;96288.59;;;12.08;69.18
72636;BME280;60679;48.888;15.544;2023-05-21T04:58:56;96295.69;;;12.21;68.95
72636;BME280;60679;48.888;15.544;2023-05-21T05:01:23;96297.34;;;12.34;68.92
72636;BME280;60679;48.888;15.544;2023-05-21T05:03:51;96301.25;;;12.49;68.76
72636;BME280;60679;48.888;15.544;2023-05-21T05:06:17;96297.00;;;12.65;68.73
72636;BME280;60679;48.888;15.544;2023-05-21T05:08:43;96298.19;;;12.81;68.68
72636;BME280;60679;48.888;15.544;2023-05-21T05:11:08;96296.88;;;12.95;68.45
72636;BME280;60679;48.888;15.544;2023-05-21T05:13:34;96296.66;;;13.08;68.44
72636;BME280;60679;48.888;15.544;2023-05-21T05:16:00;96295.56;;;13.20;68.56
72636;BME280;60679;48.888;15.544;2023-05-21T05:18:25;96298.50;;;13.30;68.54
72636;BME280;60679;48.888;15.544;2023-05-21T05:20:51;96295.50;;;13.44;68.26
72636;BME280;60679;48.888;15.544;2023-05-21T05:23:19;96294.41;;;13.56;68.32
72636;BME280;60679;48.888;15.544;2023-05-21T05:25:45;96283.03;;;13.71;67.98
72636;BME280;60679;48.888;15.544;2023-05-21T05:28:10;96289.81;;;13.85;68.03
72636;BME280;60679;48.888;15.544;2023-05-21T05:30:36;96288.44;;;13.99;67.95
72636;BME280;60679;48.888;15.544;2023-05-21T05:33:01;96295.75;;;14.15;67.58
72636;BME280;60679;48.888;15.544;2023-05-21T05:35:27;96285.41;;;14.29;67.74
72636;BME280;60679;48.888;15.544;2023-05-21T05:37:55;96285.34;;;14.40;67.39
72636;BME280;60679;48.888;15.544;2023-05-21T05:40:21;96289.38;;;14.55;67.40
72636;BME280;60679;48.888;15.544;2023-05-21T05:42:46;96289.88;;;14.68;67.29
72636;BME280;60679;48.888;15.544;2023-05-21T05:45:13;96277.00;;;14.80;67.30
72636;BME280;60679;48.888;15.544;2023-05-21T05:47:39;96286.19;;;14.96;67.23
72636;BME280;60679;48.888;15.544;2023-05-21T05:50:05;96286.09;;;15.08;66.96
72636;BME280;60679;48.888;15.544;2023-05-21T05:52:31;96291.41;;;15.19;67.31
72636;BME280;60679;48.888;15.544;2023-05-21T05:54:56;96286.13;;;15.29;67.21
72636;BME280;60679;48.888;15.544;2023-05-21T05:57:22;96286.00;;;15.41;66.72
72636;BME280;60679;48.888;15.544;2023-05-21T05:59:47;96286.69;;;15.53;66.77
72636;BME280;60679;48.888;15.544;2023-05-21T06:02:13;96283.59;;;15.66;66.93
72636;BME280;60679;48.888;15.544;2023-05-21T06:04:38;96283.72;;;15.76;66.87
72636;BME280;60679;48.888;15.544;2023-05-21T06:07:04;96283.28;;;15.89;66.93
72636;BME280;60679;48.888;15.544;2023-05-21T06:09:29;96283.16;;;16.01;66.79
72636;BME280;60679;48.888;15.544;2023-05-21T06:11:55;96286.81;;;16.11;66.62
72636;BME280;60679;48.888;15.544;2023-05-21T06:14:20;96285.00;;;16.22;66.31
72636;BME280;60679;48.888;15.544;2023-05-21T06:16:46;96280.16;;;16.29;66.44
72636;BME280;60679;48.888;15.544;2023-05-21T06:19:11;96286.25;;;16.41;66.41
72636;BME280;60679;48.888;15.544;2023-05-21T06:21:37;96284.22;;;16.53;66.36
72636;BME280;60679;48.888;15.544;2023-05-21T06:24:03;96282.09;;;16.65;66.39
72636;BME280;60679;48.888;15.544;2023-05-21T06:26:28;96285.44;;;16.72;66.26
72636;BME280;60679;48.888;15.544;2023-05-21T06:28:54;96287.69;;;16.81;66.14
72636;BME280;60679;48.888;15.544;2023-05-21T06:31:19;96282.84;;;16.93;66.07
72636;BME280;60679;48.888;15.544;2023-05-21T06:33:47;96283.75;;;17.03;66.08
72636;BME280;60679;48.888;15.544;2023-05-21T06:36:14;96278.63;;;17.17;65.99
72636;BME280;60679;48.888;15.544;2023-05-21T06:38:39;96284.19;;;17.32;66.13
72636;BME280;60679;48.888;15.544;2023-05-21T06:41:05;96289.44;;;17.49;66.15
72636;BME280;60679;48.888;15.544;2023-05-21T06:43:31;96282.41;;;17.58;65.74
72636;BME280;60679;48.888;15.544;2023-05-21T06:45:56;96282.72;;;17.66;65.82
72636;BME280;60679;48.888;15.544;2023-05-21T06:48:21;96283.81;;;17.75;65.48
72636;BME280;60679;48.888;15.544;2023-05-21T06:50:47;96285.22;;;17.83;65.42
72636;BME280;60679;48.888;15.544;2023-05-21T06:53:13;96277.03;;;17.93;65.44
72636;BME280;60679;48.888;15.544;2023-05-21T06:55:40;96291.84;;;18.02;65.12
72636;BME280;60679;48.888;15.544;2023-05-21T06:58:09;96285.56;;;18.12;65.30
72636;BME280;60679;48.888;15.544;2023-05-21T07:00:36;96285.03;;;18.25;65.21
72636;BME280;60679;48.888;15.544;2023-05-21T07:03:01;96290.53;;;18.40;64.95
72636;BME280;60679;48.888;15.544;2023-05-21T07:05:27;96288.88;;;18.44;64.94
72636;BME280;60679;48.888;15.544;2023-05-21T07:07:52;96278.53;;;18.56;64.89
72636;BME280;60679;48.888;15.544;2023-05-21T07:10:18;96285.09;;;18.65;64.47
72636;BME280;60679;48.888;15.544;2023-05-21T07:12:44;96288.91;;;18.74;64.52
72636;BME280;60679;48.888;15.544;2023-05-21T07:15:10;96285.91;;;18.86;64.60
72636;BME280;60679;48.888;15.544;2023-05-21T07:17:35;96280.69;;;18.94;64.34
72636;BME280;60679;48.888;15.544;2023-05-21T07:20:02;96283.97;;;19.07;64.40
72636;BME280;60679;48.888;15.544;2023-05-21T07:22:30;96286.09;;;19.20;64.07
72636;BME280;60679;48.888;15.544;2023-05-21T07:24:55;96283.63;;;19.28;64.07
72636;BME280;60679;48.888;15.544;2023-05-21T07:27:21;96286.91;;;19.35;63.74
72636;BME280;60679;48.888;15.544;2023-05-21T07:29:47;96287.16;;;19.49;64.11
72636;BME280;60679;48.888;15.544;2023-05-21T07:32:12;96291.22;;;19.62;63.89
72636;BME280;60679;48.888;15.544;2023-05-21T07:34:38;96285.69;;;19.72;63.36
72636;BME280;60679;48.888;15.544;2023-05-21T07:37:03;96294.97;;;19.76;63.60
72636;BME280;60679;48.888;15.544;2023-05-21T07:39:30;96293.88;;;19.87;63.40
72636;BME280;60679;48.888;15.544;2023-05-21T07:41:55;96291.31;;;20.00;63.62
72636;BME280;60679;48.888;15.544;2023-05-21T07:44:21;96298.66;;;20.15;63.61
72636;BME280;60679;48.888;15.544;2023-05-21T07:46:46;96290.09;;;20.22;63.02
72636;BME280;60679;48.888;15.544;2023-05-21T07:49:12;96282.16;;;20.25;63.19
72636;BME280;60679;48.888;15.544;2023-05-21T07:51:41;96287.28;;;20.37;63.06
72636;BME280;60679;48.888;15.544;2023-05-21T07:54:09;96277.88;;;20.48;63.07
72636;BME280;60679;48.888;15.544;2023-05-21T07:56:37;96278.09;;;20.56;62.62
72636;BME280;60679;48.888;15.544;2023-05-21T07:59:02;96278.25;;;20.70;62.57
72636;BME280;60679;48.888;15.544;2023-05-21T08:01:31;96274.56;;;20.85;62.26
72636;BME280;60679;48.888;15.544;2023-05-21T08:04:01;96289.25;;;20.99;62.35
72636;BME280;60679;48.888;15.544;2023-05-21T08:06:30;96281.22;;;21.07;62.28
72636;BME280;60679;48.888;15.544;2023-05-21T08:08:59;96281.28;;;20.97;61.57
72636;BME280;60679;48.888;15.544;2023-05-21T08:11:26;96273.63;;;20.94;62.19
72636;BME280;60679;48.888;15.544;2023-05-21T08:13:52;96284.00;;;21.02;61.89
72636;BME280;60679;48.888;15.544;2023-05-21T08:16:17;96277.09;;;21.10;61.68
72636;BME280;60679;48.888;15.544;2023-05-21T08:18:43;96287.97;;;21.20;61.67
72636;BME280;60679;48.888;15.544;2023-05-21T08:21:08;96267.38;;;21.17;61.44
72636;BME280;60679;48.888;15.544;2023-05-21T08:23:34;96284.88;;;21.26;61.76
72636;BME280;60679;48.888;15.544;2023-05-21T08:25:59;96275.47;;;21.33;61.34
72636;BME280;60679;48.888;15.544;2023-05-21T08:28:25;96275.66;;;21.41;60.94
72636;BME280;60679;48.888;15.544;2023-05-21T08:30:51;96272.84;;;21.46;61.16
72636;BME280;60679;48.888;15.544;2023-05-21T08:33:17;96277.63;;;21.59;61.24
72636;BME280;60679;48.888;15.544;2023-05-21T08:35:43;96270.63;;;21.72;60.66
72636;BME280;60679;48.888;15.544;2023-05-21T08:38:08;96266.03;;;21.86;60.67
72636;BME280;60679;48.888;15.544;2023-05-21T08:40:34;96266.31;;;22.08;60.76
72636;BME280;60679;48.888;15.544;2023-05-21T08:42:59;96271.06;;;22.40;60.12
72636;BME280;60679;48.888;15.544;2023-05-21T08:45:26;96268.94;;;22.88;59.43
72636;BME280;60679;48.888;15.544;2023-05-21T08:47:57;96268.56;;;23.40;58.98
72636;BME280;60679;48.888;15.544;2023-05-21T08:50:25;96277.16;;;23.80;58.36
72636;BME280;60679;48.888;15.544;2023-05-21T08:52:51;96277.59;;;24.50;57.47
72636;BME280;60679;48.888;15.544;2023-05-21T08:55:20;96269.13;;;25.13;55.12
72636;BME280;60679;48.888;15.544;2023-05-21T08:57:46;96266.91;;;26.84;51.03
72636;BME280;60679;48.888;15.544;2023-05-21T09:00:12;96269.13;;;29.54;45.62
72636;BME280;60679;48.888;15.544;2023-05-21T09:02:38;96267.09;;;31.28;41.50
72636;BME280;60679;48.888;15.544;2023-05-21T09:05:08;96271.16;;;32.36;39.57
72636;BME280;60679;48.888;15.544;2023-05-21T09:07:58;96272.81;;;33.26;37.91
72636;BME280;60679;48.888;15.544;2023-05-21T09:10:35;96260.16;;;34.19;37.37
72636;BME280;60679;48.888;15.544;2023-05-21T09:13:02;96273.34;;;34.98;36.33
72636;BME280;60679;48.888;15.544;2023-05-21T09:15:28;96266.72;;;35.76;35.71
72636;BME280;60679;48.888;15.544;2023-05-21T09:17:54;96264.56;;;36.46;34.98
72636;BME280;60679;48.888;15.544;2023-05-21T09:20:24;96271.84;;;37.13;33.72
72636;BME280;60679;48.888;15.544;2023-05-21T09:22:50;96274.31;;;37.32;33.08
72636;BME280;60679;48.888;15.544;2023-05-21T09:25:22;96272.56;;;38.03;32.62
72636;BME280;60679;48.888;15.544;2023-05-21T09:27:48;96275.00;;;38.86;31.78
72636;BME280;60679;48.888;15.544;2023-05-21T09:30:17;96267.13;;;39.46;31.11
72636;BME280;60679;48.888;15.544;2023-05-21T09:32:44;96265.25;;;39.95;30.24
72636;BME280;60679;48.888;15.544;2023-05-21T09:35:11;96259.72;;;40.39;29.80
72636;BME280;60679;48.888;15.544;2023-05-21T09:37:41;96270.38;;;41.10;29.38
72636;BME280;60679;48.888;15.544;2023-05-21T09:40:21;96261.94;;;41.70;29.16
72636;BME280;60679;48.888;15.544;2023-05-21T09:42:49;96262.91;;;42.17;28.48
72636;BME280;60679;48.888;15.544;2023-05-21T09:45:25;96255.50;;;42.23;28.38
72636;BME280;60679;48.888;15.544;2023-05-21T09:47:52;96261.81;;;42.34;28.24
72636;BME280;60679;48.888;15.544;2023-05-21T09:50:23;96259.66;;;43.31;27.70
72636;BME280;60679;48.888;15.544;2023-05-21T09:52:50;96256.53;;;43.65;27.45
72636;BME280;60679;48.888;15.544;2023-05-21T09:55:18;96253.91;;;44.26;27.11
72636;BME280;60679;48.888;15.544;2023-05-21T09:57:46;96257.84;;;44.16;26.91
72636;BME280;60679;48.888;15.544;2023-05-21T10:02:46;96258.34;;;43.95;27.03
72636;BME280;60679;48.888;15.544;2023-05-21T10:05:16;96250.53;;;44.15;26.52
72636;BME280;60679;48.888;15.544;2023-05-21T10:07:44;96249.41;;;44.61;26.71
72636;BME280;60679;48.888;15.544;2023-05-21T10:10:13;96255.34;;;44.99;26.38
72636;BME280;60679;48.888;15.544;2023-05-21T10:12:42;96243.91;;;45.56;25.68
72636;BME280;60679;48.888;15.544;2023-05-21T10:15:13;96256.03;;;46.27;25.26
72636;BME280;60679;48.888;15.544;2023-05-21T10:17:39;96257.19;;;46.17;25.07
72636;BME280;60679;48.888;15.544;2023-05-21T10:20:07;96252.72;;;46.41;24.90
72636;BME280;60679;48.888;15.544;2023-05-21T10:22:35;96252.25;;;46.55;24.65
72636;BME280;60679;48.888;15.544;2023-05-21T10:25:01;96249.03;;;46.78;24.03
72636;BME280;60679;48.888;15.544;2023-05-21T10:27:31;96243.34;;;46.66;24.44
72636;BME280;60679;48.888;15.544;2023-05-21T10:29:58;96239.34;;;46.97;23.70
72636;BME280;60679;48.888;15.544;2023-05-21T10:32:26;96237.84;;;47.62;22.98
72636;BME280;60679;48.888;15.544;2023-05-21T10:34:58;96235.75;;;48.15;23.08
72636;BME280;60679;48.888;15.544;2023-05-21T10:37:24;96242.00;;;48.22;22.83
72636;BME280;60679;48.888;15.544;2023-05-21T10:39:54;96232.97;;;47.71;22.85
72636;BME280;60679;48.888;15.544;2023-05-21T10:42:20;96225.84;;;48.46;22.20
72636;BME280;60679;48.888;15.544;2023-05-21T10:53:21;96208.28;;;49.48;20.83
72636;BME280;60679;48.888;15.544;2023-05-21T11:01:11;96217.06;;;49.26;20.09
72636;BME280;60679;48.888;15.544;2023-05-21T11:03:38;96214.13;;;49.81;19.72
72636;BME280;60679;48.888;15.544;2023-05-21T11:06:03;96210.22;;;51.00;19.63
72636;BME280;60679;48.888;15.544;2023-05-21T11:08:32;96218.25;;;51.49;18.96
72636;BME280;60679;48.888;15.544;2023-05-21T11:11:01;96211.56;;;51.96;18.65
72636;BME280;60679;48.888;15.544;2023-05-21T11:13:28;96206.44;;;52.20;18.00
72636;BME280;60679;48.888;15.544;2023-05-21T11:16:02;96217.94;;;51.71;18.57
72636;BME280;60679;48.888;15.544;2023-05-21T11:21:11;96215.47;;;50.78;18.42
72636;BME280;60679;48.888;15.544;2023-05-21T11:23:53;96202.66;;;50.79;18.09
72636;BME280;60679;48.888;15.544;2023-05-21T11:26:29;96195.94;;;50.82;18.00
72636;BME280;60679;48.888;15.544;2023-05-21T11:31:30;96206.97;;;49.49;19.39
72636;BME280;60679;48.888;15.544;2023-05-21T11:34:19;96199.44;;;50.53;17.60
72636;BME280;60679;48.888;15.544;2023-05-21T11:39:42;96205.72;;;50.52;18.36
72636;BME280;60679;48.888;15.544;2023-05-21T11:42:08;96199.59;;;50.26;17.67
72636;BME280;60679;48.888;15.544;2023-05-21T11:44:41;96185.91;;;51.98;16.98
72636;BME280;60679;48.888;15.544;2023-05-21T11:47:17;96188.13;;;53.33;15.79
72636;BME280;60679;48.888;15.544;2023-05-21T11:49:44;96192.31;;;53.84;15.57
72636;BME280;60679;48.888;15.544;2023-05-21T11:52:11;96184.47;;;53.38;15.89
72636;BME280;60679;48.888;15.544;2023-05-21T11:54:42;96177.16;;;52.97;16.21
72636;BME280;60679;48.888;15.544;2023-05-21T11:57:11;96173.75;;;53.65;15.27
72636;BME280;60679;48.888;15.544;2023-05-21T11:59:38;96178.31;;;54.02;14.79
72636;BME280;60679;48.888;15.544;2023-05-21T12:02:05;96174.28;;;53.63;15.38
72636;BME280;60679;48.888;15.544;2023-05-21T12:04:32;96173.56;;;53.99;15.03
72636;BME280;60679;48.888;15.544;2023-05-21T12:07:04;96169.66;;;53.77;14.69
72636;BME280;60679;48.888;15.544;2023-05-21T12:09:45;96170.63;;;53.22;14.47
72636;BME280;60679;48.888;15.544;2023-05-21T12:12:14;96164.94;;;52.47;14.88
72636;BME280;60679;48.888;15.544;2023-05-21T12:14:44;96164.69;;;52.30;14.69
72636;BME280;60679;48.888;15.544;2023-05-21T12:17:17;96162.09;;;52.67;14.30
72636;BME280;60679;48.888;15.544;2023-05-21T12:19:44;96165.00;;;53.13;14.15
72636;BME280;60679;48.888;15.544;2023-05-21T12:22:10;96160.59;;;53.38;14.39
72636;BME280;60679;48.888;15.544;2023-05-21T12:24:36;96163.53;;;52.97;14.54
72636;BME280;60679;48.888;15.544;2023-05-21T12:27:04;96166.50;;;52.13;14.66
72636;BME280;60679;48.888;15.544;2023-05-21T12:29:41;96166.66;;;52.24;14.26
72636;BME280;60679;48.888;15.544;2023-05-21T12:32:14;96157.63;;;52.17;14.34
72636;BME280;60679;48.888;15.544;2023-05-21T12:34:44;96158.41;;;52.67;13.44
72636;BME280;60679;48.888;15.544;2023-05-21T12:39:50;96157.66;;;53.12;13.73
72636;BME280;60679;48.888;15.544;2023-05-21T12:42:21;96157.00;;;53.48;13.25
72636;BME280;60679;48.888;15.544;2023-05-21T12:44:48;96150.19;;;50.04;15.78
72636;BME280;60679;48.888;15.544;2023-05-21T12:47:17;96148.31;;;53.23;13.86
72636;BME280;60679;48.888;15.544;2023-05-21T12:49:44;96154.47;;;54.98;13.00
72636;BME280;60679;48.888;15.544;2023-05-21T12:52:13;96148.03;;;55.58;12.47
72636;BME280;60679;48.888;15.544;2023-05-21T12:54:40;96144.09;;;55.67;12.34
72636;BME280;60679;48.888;15.544;2023-05-21T12:57:14;96141.19;;;55.45;12.11
72636;BME280;60679;48.888;15.544;2023-05-21T12:59:51;96142.53;;;55.66;12.12
72636;BME280;60679;48.888;15.544;2023-05-21T13:02:24;96126.97;;;56.19;12.00
72636;BME280;60679;48.888;15.544;2023-05-21T13:04:57;96133.31;;;56.17;11.77
72636;BME280;60679;48.888;15.544;2023-05-21T13:07:24;96139.91;;;55.90;11.84
72636;BME280;60679;48.888;15.544;2023-05-21T13:09:51;96133.50;;;54.72;12.22
72636;BME280;60679;48.888;15.544;2023-05-21T13:12:19;96121.72;;;51.68;14.22
72636;BME280;60679;48.888;15.544;2023-05-21T13:14:45;96109.13;;;42.19;20.95
72636;BME280;60679;48.888;15.544;2023-05-21T13:17:10;96118.94;;;49.88;14.35
72636;BME280;60679;48.888;15.544;2023-05-21T13:19:39;96108.94;;;52.79;13.06
72636;BME280;60679;48.888;15.544;2023-05-21T13:22:05;96110.38;;;53.35;12.60
72636;BME280;60679;48.888;15.544;2023-05-21T13:24:31;96109.50;;;50.91;14.31
72636;BME280;60679;48.888;15.544;2023-05-21T13:26:59;96101.81;;;49.51;14.90